Portada
METAR-TAF:

METAR-TAF

Aeroports :

Quaqtaq, Quebec, Canadà

latitud: 61-03N, longitud: 069-38W, altitud: 30 m

Observació

L'informe es va fer fa 57 minuts, a les 14:00 UTC
Vent 4 kt del Sud/Sud-Oest
Temperatura 6°C
Humitat 75%
Pressió 1024 hPa
Visibilitat: 24.1 km
Escasses núvols a una alçada de 3000 ft
Escasses núvols a una alçada de 17000 ft
Escasses núvols a una alçada de 21000 ft

METAR: CYHA 171400Z 20004KT 15SM FEW030 FEW170 FEW210 06/02 A3023 RMK SC1AC1CS1 AC TR SLP239

Hora: 10:57 (14:57 UTC)

Pronòstic

L'informe es va fer fa 1 hora i 17 minuts, a les 13:40 UTC
Pronòstic vàlid del 17 a les 14 UTC al 17 a les 21 UTC
Vent 6 kt del Sud/Sud-Est
Visibilitat: 10 km
Escasses núvols a una alçada de 3000 ft
Cel ennuvolat a una alçada de 21000 ft
Evolucionant progressivament
l' 17 a les 16 UTC al 17 a les 18 UTC
Vent 15 kt del Sud/Sud-Est

TAF: CYHA 171340Z 1714/1721 15006KT P6SM FEW030 BKN210 BECMG 1716/1718 15015KT RMK NXT FCST WILL BE ISSUED AT 181345Z

Observacions i pronòstics meteorològics de més de 4000 aeroports (METAR i TAF).

Les estacions disponibles són els punts grocs i vermells al mapa.

Posi el ratolí al punt desitjat per veure el nom de l'estació.

Feu clic per veure les observacions i els pronòstics meteorològics.

Per canviar el mapa: feu clic els botons verds amb una creu de color negre per apropar; al botó verd amb un guió per allunyar la imatge; o en les fletxes verdes per a mapes adjacents.


METAR-TAF: